Time;durP1;ratioP1;P1;durP2;ratioP2;P2;SDS_P1;SDS_P2;PMS_P1;PMS_P2;Temp;Humidity;BMP_temperature;BMP_pressure;BME280_temperature;BME280_humidity;BME280_pressure;Samples;Min_cycle;Max_cycle;Signal;HPM_P1;HPM_P2
2023/08/07 00:01:39;;;;;;;9.70;6.22;;;13.00;99.90;;;-144.05;93.88;56967.78;6156873;23;20006;-87
2023/08/07 00:04:05;;;;;;;6.95;5.80;;;13.10;99.90;;;-144.05;93.14;56967.78;6158034;23;20343;-88
2023/08/07 00:06:31;;;;;;;9.57;5.57;;;13.10;99.90;;;-144.05;93.57;56972.03;6182451;23;20462;-88
2023/08/07 00:08:57;;;;;;;4.97;4.47;;;13.10;99.90;;;-144.05;93.74;56961.41;6156564;23;20006;-87
2023/08/07 00:11:23;;;;;;;6.70;4.40;;;13.10;99.90;;;-144.05;93.96;56978.41;6158394;23;20005;-90
2023/08/07 00:13:49;;;;;;;5.90;4.60;;;13.10;99.90;;;-144.05;93.30;56976.28;6157868;23;20031;-90
2023/08/07 00:16:14;;;;;;;5.95;3.65;;;13.10;99.90;;;-144.05;93.98;56982.66;6157020;23;20064;-90
2023/08/07 00:18:40;;;;;;;6.20;2.95;;;13.10;99.90;;;-144.05;93.95;56984.78;6157702;23;20024;-91
2023/08/07 00:21:06;;;;;;;4.07;2.70;;;13.10;99.90;;;-144.05;94.67;56976.28;6157592;23;20412;-91
2023/08/07 00:23:34;;;;;;;4.15;2.88;;;13.10;99.90;;;-144.05;94.34;56969.91;6158923;23;20029;-90
2023/08/07 00:25:59;;;;;;;4.20;2.47;;;13.10;99.90;;;-144.05;94.02;56984.78;6156116;23;20021;-90
2023/08/07 00:28:25;;;;;;;3.67;2.72;;;13.10;99.90;;;-144.05;94.55;56980.53;6155611;23;20160;-91
2023/08/07 00:30:51;;;;;;;3.33;2.10;;;13.10;99.90;;;-144.05;93.96;56969.91;6156739;23;20043;-89
2023/08/07 00:33:17;;;;;;;3.42;1.70;;;13.10;99.90;;;-144.05;93.53;56974.16;6156456;23;20005;-89
2023/08/07 00:35:44;;;;;;;1.90;1.60;;;13.10;99.90;;;-144.05;93.63;56959.28;6156341;23;20010;-87
2023/08/07 00:38:09;;;;;;;2.95;1.83;;;13.10;99.90;;;-144.05;93.47;56965.66;6156760;23;20016;-89
2023/08/07 00:40:40;;;;;;;3.00;1.58;;;13.20;99.90;;;-144.05;93.37;56984.78;6155809;23;20010;-87
2023/08/07 00:43:06;;;;;;;1.05;0.90;;;13.10;99.90;;;-144.05;93.78;56989.00;6156018;23;20013;-90
2023/08/07 00:45:43;;;;;;;3.25;1.10;;;13.20;99.90;;;-144.05;94.26;56980.53;6156164;23;20064;-89
2023/08/07 00:48:12;;;;;;;2.25;1.10;;;13.20;99.90;;;-144.05;94.04;56967.78;6157718;23;20092;-89
2023/08/07 00:50:42;;;;;;;1.85;1.27;;;13.20;99.90;;;-144.05;94.05;56984.78;6156146;23;20343;-88
2023/08/07 00:53:09;;;;;;;4.22;1.25;;;13.20;99.90;;;-144.05;93.74;56974.16;6155636;23;20339;-90
2023/08/07 00:55:36;;;;;;;1.77;1.00;;;13.20;99.90;;;-144.05;93.63;56980.53;6156062;23;20006;-87
2023/08/07 00:58:02;;;;;;;3.33;1.25;;;13.20;99.90;;;-144.05;93.67;56974.16;6156011;23;20096;-88
2023/08/07 01:00:32;;;;;;;1.38;1.20;;;13.20;99.90;;;-144.05;93.70;56974.16;6156889;23;20001;-87
2023/08/07 01:03:01;;;;;;;1.75;1.40;;;13.20;99.90;;;-144.05;93.37;56967.78;6156192;23;20001;-90
2023/08/07 01:05:27;;;;;;;3.95;1.60;;;13.30;99.90;;;-144.05;93.74;56993.25;6155894;23;20013;-88
2023/08/07 01:07:55;;;;;;;2.30;1.58;;;13.30;99.90;;;-144.05;93.33;56976.28;6157026;23;20001;-89
2023/08/07 01:11:07;;;;;;;2.20;1.42;;;13.30;99.90;;;-144.05;93.40;56980.53;6160011;23;20064;-89
2023/08/07 01:13:49;;;;;;;4.63;1.50;;;13.30;99.90;;;-144.05;94.06;56967.78;6174340;23;20001;-86
2023/08/07 01:16:29;;;;;;;3.95;1.73;;;13.30;99.90;;;-144.05;94.26;56989.00;6158682;23;20013;-90
2023/08/07 01:18:59;;;;;;;3.53;1.50;;;13.30;99.90;;;-144.05;94.33;56976.28;6156550;23;20106;-91
2023/08/07 01:21:25;;;;;;;3.78;1.60;;;13.30;99.90;;;-144.05;93.76;57001.75;6155910;23;20036;-90
2023/08/07 01:23:51;;;;;;;3.83;2.05;;;13.30;99.90;;;-144.05;93.50;56997.50;6159478;23;20069;-92
2023/08/07 01:26:20;;;;;;;4.15;2.00;;;13.20;99.90;;;-144.05;93.30;56969.91;6158687;23;20029;-87
2023/08/07 01:29:14;;;;;;;5.05;1.60;;;13.20;99.90;;;-144.05;93.54;56974.16;6160106;23;20368;-88
2023/08/07 01:31:46;;;;;;;3.92;1.67;;;13.20;99.90;;;-144.05;93.91;56986.91;6159033;23;20037;-86
2023/08/07 01:34:19;;;;;;;3.22;1.52;;;13.20;99.90;;;-144.05;93.23;56980.53;6160412;23;20037;-88
2023/08/07 01:36:50;;;;;;;7.30;1.95;;;13.20;99.90;;;-144.05;93.96;56957.16;6159174;23;20069;-90
2023/08/07 01:39:19;;;;;;;10.32;2.63;;;13.20;99.90;;;-144.05;93.57;56991.13;6158947;23;20014;-88
2023/08/07 01:41:47;;;;;;;5.13;1.70;;;13.20;99.90;;;-144.05;92.85;56986.91;6158646;23;20443;-89
2023/08/07 01:44:13;;;;;;;5.70;2.03;;;13.20;99.90;;;-144.05;92.79;56978.41;6159991;23;20021;-89
2023/08/07 01:46:39;;;;;;;4.82;1.83;;;13.20;99.90;;;-144.05;92.61;56986.91;6159446;23;20009;-89
2023/08/07 01:49:04;;;;;;;5.25;2.13;;;13.10;99.90;;;-144.05;92.56;56991.13;6159870;23;20148;-89
2023/08/07 01:51:30;;;;;;;4.47;1.70;;;13.20;99.90;;;-144.05;92.78;56993.25;6157601;23;20010;-87
2023/08/07 01:53:56;;;;;;;2.75;2.10;;;13.20;99.90;;;-144.05;93.29;56972.03;6157457;23;20002;-87
2023/08/07 01:56:22;;;;;;;3.42;2.13;;;13.10;99.90;;;-144.05;93.32;56984.78;6159599;23;20015;-88
2023/08/07 01:58:48;;;;;;;5.47;2.17;;;13.10;99.90;;;-144.05;93.86;56963.53;6160337;23;20005;-87
2023/08/07 02:01:13;;;;;;;3.42;2.10;;;13.10;99.90;;;-144.05;93.07;56978.41;6158530;23;20036;-88
2023/08/07 02:03:40;;;;;;;8.00;2.10;;;13.00;99.90;;;-144.05;93.15;56972.03;6157371;23;20012;-87
2023/08/07 02:06:06;;;;;;;3.78;1.65;;;13.10;99.90;;;-144.05;93.25;56978.41;6156159;23;20006;-88
2023/08/07 02:08:32;;;;;;;4.18;2.20;;;13.10;99.90;;;-144.05;92.97;56984.78;6157829;23;20017;-88
2023/08/07 02:11:01;;;;;;;4.03;2.28;;;13.00;99.90;;;-144.05;93.62;56972.03;6157277;23;20005;-89
2023/08/07 02:13:27;;;;;;;4.20;2.08;;;13.10;99.90;;;-144.05;93.17;56976.28;6155997;23;20006;-86
2023/08/07 02:15:52;;;;;;;4.38;2.20;;;13.00;99.90;;;-144.05;93.01;56995.38;6156408;23;20010;-89
2023/08/07 02:18:18;;;;;;;3.50;2.40;;;13.00;99.90;;;-144.05;92.90;56974.16;6156763;23;20056;-86
2023/08/07 02:20:45;;;;;;;6.40;2.97;;;13.00;99.90;;;-144.05;92.62;57001.75;6158221;23;20056;-86
2023/08/07 02:23:12;;;;;;;6.53;3.33;;;13.00;99.90;;;-144.05;92.69;56955.03;6132501;23;20101;-86
2023/08/07 02:25:38;;;;;;;7.18;3.17;;;13.00;99.90;;;-144.05;92.88;56976.28;6132668;23;20347;-88
2023/08/07 02:28:04;;;;;;;8.15;3.15;;;13.00;99.90;;;-144.05;92.74;56946.53;6132856;23;20005;-86
2023/08/07 02:30:31;;;;;;;3.63;2.47;;;13.00;99.90;;;-144.05;92.78;56952.91;6133401;23;20091;-86
2023/08/07 02:32:57;;;;;;;3.95;2.55;;;13.00;99.90;;;-144.05;92.62;56984.78;6132156;23;20465;-87
2023/08/07 02:35:23;;;;;;;5.13;2.22;;;13.00;99.90;;;-144.05;93.67;56976.28;6132675;23;20084;-89
2023/08/07 02:37:48;;;;;;;3.53;2.15;;;12.90;99.90;;;-144.05;92.81;56991.13;6132178;23;20069;-89
2023/08/07 02:40:15;;;;;;;3.50;2.13;;;13.00;99.90;;;-144.05;92.74;56986.91;6132614;23;20008;-87
2023/08/07 02:42:42;;;;;;;6.00;2.08;;;13.00;99.90;;;-144.05;92.75;56955.03;6132142;23;20443;-88
2023/08/07 02:45:08;;;;;;;4.03;2.10;;;13.00;99.90;;;-144.05;93.10;56974.16;6131311;23;20371;-86
2023/08/07 02:47:34;;;;;;;4.03;2.17;;;13.00;99.90;;;-144.05;93.94;56986.91;6156757;23;20008;-87
2023/08/07 02:50:00;;;;;;;3.65;1.80;;;13.00;99.90;;;-144.05;93.65;56989.00;6130968;23;20088;-88
2023/08/07 02:52:26;;;;;;;4.15;1.88;;;13.00;99.90;;;-144.05;93.99;56965.66;6133379;23;20076;-88
2023/08/07 02:54:52;;;;;;;4.05;1.67;;;13.00;99.90;;;-144.05;93.40;56995.38;6134471;23;20013;-89
2023/08/07 02:57:17;;;;;;;7.72;1.98;;;13.00;99.90;;;-144.05;93.54;56984.78;6135315;23;20036;-88
2023/08/07 02:59:43;;;;;;;3.22;1.98;;;13.00;99.90;;;-144.05;93.88;56950.78;6135026;23;20010;-88
2023/08/07 03:02:09;;;;;;;3.88;1.88;;;13.00;99.90;;;-144.05;93.53;56976.28;6135212;23;20009;-90
2023/08/07 03:04:35;;;;;;;3.65;1.60;;;13.00;99.90;;;-144.05;93.31;56974.16;6135123;23;20016;-87
2023/08/07 03:07:01;;;;;;;4.75;2.10;;;13.00;99.90;;;-144.05;93.21;56965.66;6135972;23;20006;-87
2023/08/07 03:09:26;;;;;;;4.00;1.95;;;13.00;99.90;;;-144.05;93.18;56976.28;6135374;23;20013;-87
2023/08/07 03:11:52;;;;;;;5.57;2.40;;;13.00;99.90;;;-144.05;93.15;56976.28;6136554;23;20013;-87
2023/08/07 03:14:18;;;;;;;3.88;1.95;;;13.00;99.90;;;-144.05;93.76;56969.91;6136140;23;20363;-87
2023/08/07 03:16:46;;;;;;;2.55;1.77;;;13.00;99.90;;;-144.05;93.84;56993.25;6136843;23;20088;-88
2023/08/07 03:19:11;;;;;;;4.07;1.60;;;13.10;99.90;;;-144.05;93.45;56986.91;6153655;23;20074;-84
2023/08/07 03:21:38;;;;;;;2.00;1.40;;;13.00;99.90;;;-144.05;93.43;56982.66;6159551;23;20005;-86
2023/08/07 03:24:04;;;;;;;3.97;1.90;;;13.10;99.90;;;-144.05;93.44;56967.78;6185935;23;20012;-83
2023/08/07 03:26:30;;;;;;;3.38;1.95;;;13.10;99.90;;;-144.05;93.77;56978.41;6159970;23;20017;-85
2023/08/07 03:28:56;;;;;;;5.22;2.03;;;13.10;99.90;;;-144.05;93.17;56991.13;6186390;23;20475;-86
2023/08/07 03:31:22;;;;;;;4.85;1.88;;;13.10;99.90;;;-144.05;92.87;56978.41;6160000;23;20005;-83
2023/08/07 03:33:47;;;;;;;7.95;2.17;;;13.10;99.90;;;-144.05;92.79;56984.78;6159830;23;20351;-83
2023/08/07 03:36:13;;;;;;;6.15;1.73;;;13.10;99.90;;;-144.05;92.77;56999.63;6160626;23;20461;-86
2023/08/07 03:38:39;;;;;;;3.75;1.90;;;13.10;99.90;;;-144.05;92.99;56986.91;6187157;23;20431;-83
2023/08/07 03:41:05;;;;;;;1.63;1.00;;;13.10;99.90;;;-144.05;93.38;56991.13;6159820;23;20009;-85
2023/08/07 03:43:31;;;;;;;2.67;1.25;;;13.00;99.90;;;-144.05;92.88;56974.16;6186180;23;20016;-84
2023/08/07 03:45:57;;;;;;;3.78;1.02;;;13.00;99.90;;;-144.05;92.70;56965.66;6159529;23;20466;-83
2023/08/07 03:48:23;;;;;;;3.80;0.80;;;13.10;99.90;;;-144.05;92.79;56997.50;6185723;23;20027;-82
2023/08/07 03:50:49;;;;;;;4.43;1.50;;;13.00;99.90;;;-144.05;93.35;56967.78;6159296;23;20338;-85
2023/08/07 03:53:14;;;;;;;3.65;1.30;;;13.00;99.90;;;-144.05;92.95;56999.63;6159400;23;20037;-84
2023/08/07 03:55:41;;;;;;;5.32;1.55;;;13.10;99.90;;;-144.05;92.75;56991.13;6186251;23;20005;-84
2023/08/07 03:58:08;;;;;;;2.83;1.70;;;13.10;99.90;;;-144.05;93.16;56972.03;6159036;23;20016;-85
2023/08/07 04:00:34;;;;;;;5.28;1.90;;;13.00;99.90;;;-144.05;92.84;56974.16;6159763;23;20323;-82
2023/08/07 04:03:00;;;;;;;3.60;1.92;;;13.00;99.90;;;-144.05;92.66;56961.41;6158983;23;20005;-84
2023/08/07 04:05:26;;;;;;;5.63;2.00;;;13.10;99.90;;;-144.05;92.42;56991.13;6184954;23;20037;-86
2023/08/07 04:07:52;;;;;;;7.32;2.08;;;13.00;99.90;;;-144.05;92.12;56984.78;6159992;23;20005;-80
2023/08/07 04:10:18;;;;;;;5.75;2.00;;;13.00;99.90;;;-144.05;91.55;56982.66;6185284;23;20009;-84
2023/08/07 04:12:43;;;;;;;5.20;2.10;;;13.00;99.90;;;-144.05;91.93;56980.53;6185698;23;20392;-89
2023/08/07 04:15:09;;;;;;;5.72;2.28;;;13.00;99.90;;;-144.05;92.24;56982.66;6159162;23;20399;-86
2023/08/07 04:17:36;;;;;;;9.90;2.60;;;13.00;99.90;;;-144.05;92.38;56980.53;6184835;23;20334;-86
2023/08/07 04:20:03;;;;;;;8.52;2.80;;;13.00;99.90;;;-144.05;92.26;56959.28;6161733;23;20013;-89
2023/08/07 04:22:29;;;;;;;5.57;3.22;;;13.00;99.90;;;-144.05;91.98;56997.50;6189051;23;20108;-86
2023/08/07 04:24:55;;;;;;;8.70;3.90;;;13.00;99.90;;;-144.05;92.45;56997.50;6171694;23;20016;-84
2023/08/07 04:27:21;;;;;;;10.10;3.80;;;13.00;99.90;;;-144.05;92.64;56986.91;6199435;23;20020;-84
2023/08/07 04:29:47;;;;;;;11.57;4.22;;;13.00;99.90;;;-144.05;92.32;56974.16;6173950;23;20012;-84
2023/08/07 04:32:12;;;;;;;6.65;3.50;;;13.00;99.90;;;-144.05;91.88;57001.75;6194293;23;20005;-83
2023/08/07 04:34:38;;;;;;;7.70;3.90;;;13.00;99.90;;;-144.05;91.79;56982.66;6159506;23;20013;-85
2023/08/07 04:37:06;;;;;;;9.10;4.38;;;12.90;99.90;;;-144.05;92.75;56959.28;6158641;23;20009;-86
2023/08/07 04:39:32;;;;;;;7.90;4.55;;;12.90;99.90;;;-144.05;92.92;56967.78;6159092;23;20059;-87
2023/08/07 04:41:57;;;;;;;9.50;4.97;;;12.90;99.90;;;-144.05;92.18;56963.53;6185416;23;20005;-83
2023/08/07 04:44:23;;;;;;;9.70;4.90;;;12.90;99.90;;;-144.05;92.11;56976.28;6159145;23;20013;-87
2023/08/07 04:46:49;;;;;;;15.45;5.35;;;13.00;99.90;;;-144.05;91.89;57001.75;6185185;23;20378;-84
2023/08/07 04:49:15;;;;;;;11.90;5.82;;;12.90;99.90;;;-144.05;92.67;56989.00;6185352;23;20005;-87
2023/08/07 04:51:41;;;;;;;11.48;5.53;;;13.00;99.90;;;-144.05;92.84;56991.13;6158916;23;20017;-86
2023/08/07 04:54:07;;;;;;;12.90;6.22;;;12.90;99.90;;;-144.05;92.00;56989.00;6160008;23;20005;-85
2023/08/07 04:56:32;;;;;;;9.98;6.03;;;12.90;99.90;;;-144.05;92.15;56969.91;6187642;23;20083;-84
2023/08/07 04:58:58;;;;;;;14.25;6.78;;;12.90;99.90;;;-144.05;92.05;56982.66;6187216;23;20009;-85
2023/08/07 05:01:24;;;;;;;13.82;6.13;;;12.90;99.90;;;-144.05;92.57;56984.78;6159529;23;20035;-85
2023/08/07 05:03:50;;;;;;;11.10;5.28;;;12.90;99.90;;;-144.05;92.56;56980.53;6185504;23;20037;-86
2023/08/07 05:06:16;;;;;;;14.85;5.53;;;12.80;99.90;;;-144.05;92.42;56967.78;6159087;23;20346;-84
2023/08/07 05:08:42;;;;;;;10.93;4.82;;;12.80;99.90;;;-144.05;92.79;56982.66;6158807;23;20009;-86
2023/08/07 05:11:07;;;;;;;13.35;5.75;;;12.80;99.90;;;-144.05;92.84;56976.28;6188464;23;20005;-86
2023/08/07 05:13:33;;;;;;;12.80;6.25;;;12.90;99.90;;;-144.05;92.55;56986.91;6162048;23;20005;-85
2023/08/07 05:15:59;;;;;;;11.63;6.55;;;12.90;99.90;;;-144.05;92.74;56999.63;6161076;23;20040;-83
2023/08/07 05:18:25;;;;;;;11.55;6.22;;;12.80;99.90;;;-144.05;92.64;56999.63;6168416;23;20009;-83
2023/08/07 05:20:51;;;;;;;15.95;6.68;;;12.90;99.90;;;-144.05;92.39;56982.66;6158174;23;20023;-85
2023/08/07 05:23:17;;;;;;;9.63;5.28;;;12.90;99.90;;;-144.05;92.49;57001.75;6184517;23;20009;-85
2023/08/07 05:25:47;;;;;;;7.88;5.50;;;12.90;99.90;;;-144.05;92.93;56986.91;6158193;23;20009;-84
2023/08/07 05:28:13;;;;;;;9.57;5.45;;;12.90;99.90;;;-144.05;92.41;57003.88;6184950;23;20005;-84
2023/08/07 05:30:39;;;;;;;10.38;5.43;;;12.90;99.90;;;-144.05;92.49;56982.66;6158146;23;20083;-85
2023/08/07 05:33:05;;;;;;;12.70;5.18;;;12.80;99.90;;;-144.05;92.52;56984.78;6184613;23;20355;-82
2023/08/07 05:35:30;;;;;;;15.90;5.00;;;12.90;99.90;;;-144.05;92.38;56959.28;6158420;23;20020;-81
2023/08/07 05:37:56;;;;;;;10.35;5.63;;;12.90;99.90;;;-144.05;93.00;56980.53;6158786;23;20033;-81
2023/08/07 05:40:22;;;;;;;9.43;5.53;;;12.80;99.90;;;-144.05;92.04;56986.91;6184416;23;20379;-82
2023/08/07 05:42:48;;;;;;;13.57;6.50;;;12.80;99.90;;;-144.05;92.56;56974.16;6184508;23;20073;-83
2023/08/07 05:45:14;;;;;;;15.15;6.72;;;12.80;99.90;;;-144.05;92.41;56993.25;6159574;23;20008;-84
2023/08/07 05:47:40;;;;;;;12.27;6.28;;;12.80;99.90;;;-144.05;91.73;56946.53;6161140;23;20013;-88
2023/08/07 05:50:07;;;;;;;14.30;7.03;;;12.90;99.90;;;-144.05;92.68;56989.00;6159981;23;20005;-85
2023/08/07 05:52:33;;;;;;;11.10;7.15;;;12.90;99.90;;;-144.05;93.07;56963.53;6161334;23;20084;-84
2023/08/07 05:54:59;;;;;;;12.70;6.38;;;12.90;99.90;;;-144.05;92.72;56989.00;6188544;23;20390;-82
2023/08/07 05:57:24;;;;;;;11.23;6.57;;;12.90;99.90;;;-144.05;92.61;56986.91;6187532;23;20076;-86
2023/08/07 05:59:50;;;;;;;10.85;6.10;;;12.80;99.90;;;-144.05;92.22;56989.00;6161502;23;20025;-86
2023/08/07 06:02:17;;;;;;;8.57;6.80;;;12.80;99.90;;;-144.05;92.18;56984.78;6161972;23;20005;-83
2023/08/07 06:04:42;;;;;;;13.00;6.82;;;12.90;99.90;;;-144.05;92.08;56999.63;6159502;23;20077;-85
2023/08/07 06:07:08;;;;;;;11.20;5.93;;;12.90;99.90;;;-144.05;92.80;56993.25;6186161;23;20032;-83
2023/08/07 06:09:35;;;;;;;8.25;5.25;;;12.90;99.90;;;-144.05;92.20;56967.78;6159893;23;20037;-84
2023/08/07 06:12:01;;;;;;;11.05;6.78;;;13.00;99.90;;;-144.05;92.48;56978.41;6161425;23;20354;-83
2023/08/07 06:14:29;;;;;;;9.15;5.55;;;12.90;99.90;;;-144.05;93.25;57001.75;6186065;23;20005;-84
2023/08/07 06:16:57;;;;;;;13.18;5.85;;;12.90;99.90;;;-144.05;92.60;56984.78;6185189;23;20009;-84
2023/08/07 06:19:24;;;;;;;8.68;5.05;;;12.90;99.90;;;-144.05;92.10;56980.53;6153909;23;20050;-84
2023/08/07 06:21:49;;;;;;;10.27;6.05;;;13.00;99.90;;;-144.05;92.22;57012.38;6155347;23;20005;-85
2023/08/07 06:24:15;;;;;;;9.77;6.28;;;12.90;99.90;;;-144.05;92.23;56999.63;6153444;23;20040;-85
2023/08/07 06:26:41;;;;;;;10.65;5.22;;;12.90;99.90;;;-144.05;92.42;56984.78;6153951;23;20017;-83
2023/08/07 06:29:07;;;;;;;8.95;6.00;;;12.90;99.90;;;-144.05;92.90;56978.41;6155805;23;20037;-85
2023/08/07 06:31:33;;;;;;;8.40;5.50;;;12.90;99.90;;;-144.05;92.02;56972.03;6158596;23;20073;-83
2023/08/07 06:33:59;;;;;;;7.20;4.88;;;12.90;99.90;;;-144.05;93.50;56963.53;6156771;23;20016;-84
2023/08/07 06:36:26;;;;;;;10.57;5.60;;;12.90;99.90;;;-144.05;92.72;56972.03;6158847;23;20020;-86
2023/08/07 06:38:52;;;;;;;15.35;6.22;;;13.00;99.90;;;-144.05;93.09;56989.00;6165432;23;20006;-86
2023/08/07 06:41:18;;;;;;;16.48;6.63;;;12.90;99.90;;;-144.05;92.90;56986.91;6159267;23;20006;-84
2023/08/07 06:43:43;;;;;;;13.15;6.20;;;12.90;99.90;;;-144.05;93.72;56997.50;6157772;23;20348;-84
2023/08/07 06:46:11;;;;;;;11.20;5.32;;;13.00;99.90;;;-144.05;93.22;56993.25;6161546;23;20040;-83
2023/08/07 06:48:37;;;;;;;8.80;5.65;;;13.00;99.90;;;-144.05;92.44;56976.28;6168127;23;20005;-87
2023/08/07 06:51:03;;;;;;;11.10;5.82;;;13.10;99.90;;;-144.05;92.52;56993.25;6160641;23;20435;-83
2023/08/07 06:53:28;;;;;;;16.15;5.43;;;13.10;99.90;;;-144.05;92.41;56991.13;6160973;23;20002;-84
2023/08/07 06:55:54;;;;;;;13.90;6.28;;;13.10;99.90;;;-144.05;92.76;56976.28;6160268;23;20387;-86
2023/08/07 06:58:20;;;;;;;12.20;5.70;;;13.10;99.90;;;-144.05;92.56;56991.13;6161428;23;20021;-86
2023/08/07 07:00:50;;;;;;;10.07;5.00;;;13.10;99.90;;;-144.05;92.97;56980.53;6157998;23;20064;-83
2023/08/07 07:03:16;;;;;;;10.93;5.10;;;13.10;99.90;;;-144.05;92.01;56984.78;6160854;23;20005;-79
2023/08/07 07:05:42;;;;;;;10.13;4.82;;;13.20;99.90;;;-144.05;92.14;56989.00;6164123;23;20016;-83
2023/08/07 07:08:09;;;;;;;14.40;4.65;;;13.20;99.90;;;-144.05;92.54;56974.16;6184409;23;20084;-83
2023/08/07 07:10:34;;;;;;;9.20;4.47;;;13.20;99.90;;;-144.05;92.03;56986.91;6161358;23;20008;-83
2023/08/07 07:13:00;;;;;;;8.75;4.05;;;13.30;99.90;;;-144.05;91.51;56965.66;6155314;23;20100;-84
2023/08/07 07:15:26;;;;;;;8.93;4.72;;;13.30;99.90;;;-144.05;91.98;56991.13;6157365;23;20013;-84
2023/08/07 07:17:52;;;;;;;8.57;3.92;;;13.30;99.90;;;-144.05;92.07;56974.16;6156450;23;20006;-83
2023/08/07 07:20:19;;;;;;;8.75;3.80;;;13.30;99.90;;;-144.05;92.22;56980.53;6183066;23;20069;-83
2023/08/07 07:22:45;;;;;;;8.77;4.10;;;13.30;99.90;;;-144.05;91.88;56991.13;6187148;23;20346;-84
2023/08/07 07:25:11;;;;;;;6.60;3.95;;;13.40;99.90;;;-144.05;92.14;56969.91;6160286;23;20005;-83
2023/08/07 07:27:36;;;;;;;9.60;3.95;;;13.50;99.90;;;-144.05;92.17;56986.91;6159672;23;20016;-84
2023/08/07 07:30:03;;;;;;;9.98;4.43;;;13.50;99.90;;;-144.05;92.01;56982.66;6186077;23;20056;-84
2023/08/07 07:32:29;;;;;;;8.55;3.58;;;13.60;99.90;;;-144.05;92.33;56995.38;6186981;23;20080;-83
2023/08/07 07:34:55;;;;;;;8.73;3.38;;;13.50;99.90;;;-144.05;92.32;56980.53;6160421;23;20461;-81
2023/08/07 07:37:21;;;;;;;7.50;3.35;;;13.60;99.90;;;-144.05;92.26;56978.41;6159743;23;20470;-83
2023/08/07 07:39:47;;;;;;;7.90;3.17;;;13.50;99.90;;;-144.05;92.59;56967.78;6158705;23;20324;-81
2023/08/07 07:42:12;;;;;;;4.10;2.20;;;13.50;99.90;;;-144.05;92.85;56997.50;6159397;23;20139;-83
2023/08/07 07:44:39;;;;;;;4.22;2.60;;;13.50;99.90;;;-144.05;92.65;56963.53;6159774;23;20013;-84
2023/08/07 07:47:05;;;;;;;4.80;2.20;;;13.50;99.90;;;-144.05;92.18;57001.75;6186412;23;20382;-83
2023/08/07 07:49:33;;;;;;;4.97;1.98;;;13.50;99.90;;;-144.05;92.21;56986.91;6186506;23;20431;-83
2023/08/07 07:52:00;;;;;;;3.72;1.98;;;13.50;99.90;;;-144.05;92.13;56982.66;6160215;23;20055;-85
2023/08/07 07:54:25;;;;;;;3.15;1.83;;;13.50;99.90;;;-144.05;92.99;56993.25;6184449;23;20005;-83
2023/08/07 07:56:51;;;;;;;4.00;1.88;;;13.50;99.90;;;-144.05;92.61;56991.13;6186071;23;20020;-80
2023/08/07 07:59:17;;;;;;;4.45;2.13;;;13.60;99.90;;;-144.05;92.61;56993.25;6158841;23;20059;-82
2023/08/07 08:01:43;;;;;;;3.75;2.00;;;13.60;99.90;;;-144.05;92.36;56991.13;6185442;23;20097;-80
2023/08/07 08:04:10;;;;;;;3.97;2.40;;;13.70;99.90;;;-144.05;92.15;56982.66;6185430;23;20398;-81
2023/08/07 08:06:36;;;;;;;4.10;2.03;;;13.70;99.90;;;-144.05;92.77;56993.25;6185020;23;20546;-80
2023/08/07 08:09:04;;;;;;;4.72;2.33;;;13.70;99.90;;;-144.05;92.38;57001.75;6184931;23;20351;-82
2023/08/07 08:11:31;;;;;;;2.83;2.53;;;13.70;99.90;;;-144.05;92.21;56961.41;6185323;23;20005;-82
2023/08/07 08:13:57;;;;;;;6.45;3.00;;;13.70;99.90;;;-144.05;92.05;56940.16;6185169;23;20431;-84
2023/08/07 08:16:22;;;;;;;3.42;2.47;;;13.70;99.90;;;-144.05;92.66;56974.16;6158534;23;20009;-82
2023/08/07 08:18:48;;;;;;;5.05;2.47;;;13.80;99.90;;;-144.05;92.44;56980.53;6188751;23;20063;-83
2023/08/07 08:21:14;;;;;;;3.95;2.63;;;13.80;99.90;;;-144.05;92.13;56984.78;6166739;23;20012;-84
2023/08/07 08:23:40;;;;;;;5.85;2.97;;;13.80;99.90;;;-144.05;91.82;56982.66;6166278;23;20013;-84
2023/08/07 08:26:06;;;;;;;7.18;2.75;;;13.80;99.90;;;-144.05;92.56;56993.25;6192294;23;20009;-82
2023/08/07 08:28:32;;;;;;;6.30;3.17;;;13.90;99.90;;;-144.05;91.48;56980.53;6162504;23;20347;-81
2023/08/07 08:30:58;;;;;;;7.47;2.63;;;13.90;99.90;;;-144.05;91.01;56995.38;6161418;23;20001;-84
2023/08/07 08:33:23;;;;;;;5.32;2.83;;;14.00;99.90;;;-144.05;90.50;57018.75;6186329;23;20031;-85
2023/08/07 08:35:49;;;;;;;6.93;2.63;;;14.10;99.90;;;-144.05;89.39;56982.66;6162041;23;20470;-85
2023/08/07 08:38:16;;;;;;;5.35;2.30;;;14.20;99.90;;;-144.05;90.11;56974.16;6186162;23;20001;-84
2023/08/07 08:40:45;;;;;;;5.22;1.77;;;14.30;99.90;;;-144.05;89.72;56967.78;6159105;23;20005;-83
2023/08/07 08:43:13;;;;;;;8.02;2.47;;;14.40;99.90;;;-144.05;88.50;56963.53;6185427;23;20036;-84
2023/08/07 08:45:41;;;;;;;6.53;2.35;;;14.50;99.90;;;-144.05;88.60;56974.16;6158741;23;20416;-84
2023/08/07 08:48:21;;;;;;;7.82;1.80;;;14.70;99.90;;;-144.05;87.61;56986.91;6158602;23;20005;-83
2023/08/07 08:50:50;;;;;;;2.75;2.13;;;14.70;99.90;;;-144.05;87.60;56993.25;6158876;23;20430;-84
2023/08/07 08:53:20;;;;;;;3.92;2.00;;;14.80;99.90;;;-144.05;88.19;56984.78;6158659;23;20009;-83
2023/08/07 08:55:47;;;;;;;4.97;1.80;;;14.80;99.90;;;-144.05;88.56;56978.41;6158972;23;20390;-84
2023/08/07 08:58:17;;;;;;;6.47;2.10;;;14.80;99.90;;;-144.05;88.46;56989.00;6158955;23;20407;-82
2023/08/07 09:00:44;;;;;;;2.97;1.33;;;15.00;99.90;;;-144.05;87.13;56978.41;6158647;23;20012;-82
2023/08/07 09:03:11;;;;;;;2.58;1.20;;;14.80;99.90;;;-144.05;87.10;56993.25;6185188;23;20008;-80
2023/08/07 09:05:39;;;;;;;3.55;1.38;;;14.70;99.90;;;-144.05;88.04;56959.28;6158901;23;20009;-82
2023/08/07 09:08:07;;;;;;;3.60;2.00;;;14.60;99.90;;;-144.05;87.85;56995.38;6185107;23;19997;-82
2023/08/07 09:10:34;;;;;;;5.47;1.60;;;14.50;99.90;;;-144.05;88.12;56991.13;6185245;23;20088;-83
2023/08/07 09:13:11;;;;;;;6.93;1.95;;;14.60;99.90;;;-144.05;87.92;56980.53;6159334;23;20060;-82
2023/08/07 09:15:39;;;;;;;3.85;1.63;;;14.80;99.90;;;-144.05;87.82;56976.28;6159776;23;20005;-83
2023/08/07 09:18:09;;;;;;;6.97;2.10;;;14.90;99.90;;;-144.05;86.87;56974.16;6185166;23;20012;-81
2023/08/07 09:23:03;;;;;;;9.73;3.22;;;15.00;99.90;;;-144.05;86.67;56974.16;6191257;23;20021;-84
2023/08/07 09:25:32;;;;;;;6.03;2.00;;;15.10;99.90;;;-144.05;86.79;56989.00;6188709;23;20112;-85
2023/08/07 09:28:05;;;;;;;9.48;3.22;;;15.20;99.90;;;-144.05;86.72;56995.38;6191347;23;20005;-85
2023/08/07 09:30:38;;;;;;;8.77;3.60;;;15.30;99.90;;;-144.05;85.76;56997.50;6191074;23;20088;-84
2023/08/07 09:33:05;;;;;;;11.90;3.38;;;15.60;99.90;;;-144.05;83.80;56993.25;6189106;23;20081;-85
2023/08/07 09:35:33;;;;;;;8.73;2.95;;;15.90;99.90;;;-144.05;82.32;56984.78;6191063;23;20622;-85
2023/08/07 09:37:59;;;;;;;12.57;3.92;;;16.00;99.90;;;-144.05;80.14;56969.91;6190850;23;20012;-81
2023/08/07 09:40:25;;;;;;;10.65;3.28;;;16.00;99.90;;;-144.05;80.51;56995.38;6189636;23;20005;-84
2023/08/07 09:42:54;;;;;;;13.73;3.88;;;16.10;99.90;;;-144.05;81.49;56989.00;6188395;23;20020;-85
2023/08/07 09:45:27;;;;;;;8.38;2.75;;;16.40;99.90;;;-144.05;80.75;56993.25;6164355;23;20063;-85
2023/08/07 09:48:04;;;;;;;8.30;3.40;;;16.80;99.90;;;-144.05;79.82;57003.88;6188240;23;20435;-85
2023/08/07 09:50:31;;;;;;;10.45;3.20;;;17.20;99.90;;;-144.05;77.96;57016.63;6187891;23;20013;-85
2023/08/07 09:52:58;;;;;;;9.73;2.70;;;17.50;99.90;;;-144.05;73.91;57006.00;6189051;23;20013;-85
2023/08/07 09:55:26;;;;;;;10.80;2.80;;;17.50;99.90;;;-144.05;73.92;56991.13;6188935;23;20001;-82
2023/08/07 09:57:53;;;;;;;8.18;2.83;;;17.20;99.90;;;-144.05;75.97;56991.13;6188434;23;20071;-85
2023/08/07 10:00:21;;;;;;;8.27;2.58;;;16.90;99.90;;;-144.05;74.87;56984.78;6164745;23;20009;-86
2023/08/07 10:02:50;;;;;;;9.30;2.88;;;16.80;99.90;;;-144.05;75.50;56989.00;6187436;23;20040;-83
2023/08/07 10:05:17;;;;;;;7.22;2.70;;;17.20;99.90;;;-144.05;75.00;56980.53;6189496;23;20005;-85
2023/08/07 10:07:43;;;;;;;8.68;3.10;;;17.30;99.90;;;-144.05;72.80;56997.50;6187392;23;20005;-83